createdAt,value
2023-01-21T00:01:19.768Z,9.00
2023-01-21T00:03:47.069Z,7.55
2023-01-21T00:06:15.228Z,7.63
2023-01-21T00:08:42.266Z,7.43
2023-01-21T00:11:14.616Z,7.97
2023-01-21T00:13:43.595Z,7.38
2023-01-21T00:16:11.950Z,8.02
2023-01-21T00:18:39.053Z,7.72
2023-01-21T00:21:06.441Z,8.30
2023-01-21T00:23:33.296Z,8.07
2023-01-21T00:26:06.085Z,8.38
2023-01-21T00:28:36.436Z,7.40
2023-01-21T00:31:07.721Z,8.13
2023-01-21T00:33:35.247Z,7.82
2023-01-21T00:36:06.883Z,8.63
2023-01-21T00:38:35.328Z,7.90
2023-01-21T00:41:08.456Z,8.32
2023-01-21T00:43:35.584Z,7.30
2023-01-21T00:46:03.461Z,7.88
2023-01-21T00:48:30.819Z,7.68
2023-01-21T00:51:01.353Z,8.35
2023-01-21T00:53:31.791Z,7.78
2023-01-21T00:56:01.496Z,7.75
2023-01-21T00:58:30.548Z,8.00
2023-01-21T01:01:12.479Z,8.00
2023-01-21T01:03:41.035Z,7.88
2023-01-21T01:06:16.598Z,8.55
2023-01-21T01:08:45.799Z,7.53
2023-01-21T01:11:14.451Z,7.43
2023-01-21T01:13:41.659Z,11.75
2023-01-21T01:16:12.987Z,8.68
2023-01-21T01:18:40.512Z,7.65
2023-01-21T01:21:13.329Z,6.57
2023-01-21T01:23:40.767Z,7.47
2023-01-21T01:26:13.060Z,7.65
2023-01-21T01:28:41.476Z,7.15
2023-01-21T01:31:12.894Z,7.63
2023-01-21T01:33:40.128Z,8.50
2023-01-21T01:36:15.913Z,7.95
2023-01-21T01:38:43.474Z,7.72
2023-01-21T01:41:20.154Z,8.68
2023-01-21T01:44:02.373Z,8.10
2023-01-21T01:46:36.600Z,8.55
2023-01-21T01:49:09.465Z,7.63
2023-01-21T01:51:43.038Z,9.70
2023-01-21T01:54:15.412Z,8.05
2023-01-21T01:56:47.698Z,9.27
2023-01-21T01:59:15.441Z,9.20
2023-01-21T02:01:42.742Z,9.30
2023-01-21T02:04:18.309Z,9.00
2023-01-21T02:06:48.292Z,9.05
2023-01-21T02:09:15.167Z,9.50
2023-01-21T02:11:42.635Z,9.40
2023-01-21T02:14:09.953Z,8.90
2023-01-21T02:17:12.314Z,9.13
2023-01-21T02:20:16.561Z,9.10
2023-01-21T02:23:51.859Z,8.25
2023-01-21T02:26:42.942Z,9.27
2023-01-21T02:29:57.715Z,9.40
2023-01-21T02:33:09.193Z,9.43
2023-01-21T02:35:46.398Z,8.73
2023-01-21T02:38:58.041Z,9.60
2023-01-21T02:42:04.715Z,9.55
2023-01-21T02:44:39.623Z,9.40
2023-01-21T02:47:29.439Z,9.73
2023-01-21T02:50:06.512Z,8.93
2023-01-21T02:52:34.223Z,9.38
2023-01-21T02:55:02.734Z,8.68
2023-01-21T02:57:54.273Z,9.07
2023-01-21T03:00:30.161Z,9.48
2023-01-21T03:03:35.787Z,9.02
2023-01-21T03:06:30.058Z,7.70
2023-01-21T03:09:26.152Z,8.63
2023-01-21T03:12:30.073Z,7.88
2023-01-21T03:15:32.046Z,9.27
2023-01-21T03:18:34.247Z,9.65
2023-01-21T03:21:11.840Z,9.82
2023-01-21T03:23:48.067Z,9.82
2023-01-21T03:26:23.224Z,9.45
2023-01-21T03:31:37.103Z,8.05
2023-01-21T03:34:10.201Z,8.63
2023-01-21T03:37:20.338Z,8.40
2023-01-21T03:39:57.248Z,7.28
2023-01-21T03:42:24.946Z,8.13
2023-01-21T03:44:52.215Z,8.75
2023-01-21T03:47:33.539Z,8.88
2023-01-21T03:50:22.628Z,8.05
2023-01-21T03:52:50.228Z,7.53
2023-01-21T03:55:18.726Z,7.78
2023-01-21T03:57:45.685Z,7.18
2023-01-21T04:00:13.509Z,7.25
2023-01-21T04:02:42.572Z,6.40
2023-01-21T04:05:09.897Z,6.85
2023-01-21T04:07:37.093Z,7.30
2023-01-21T04:10:04.774Z,7.05
2023-01-21T04:12:31.741Z,6.80
2023-01-21T04:14:58.916Z,7.25
2023-01-21T04:17:25.756Z,6.80
2023-01-21T04:19:53.064Z,6.82
2023-01-21T04:22:20.776Z,7.07
2023-01-21T04:24:48.527Z,7.90
2023-01-21T04:27:15.468Z,7.15
2023-01-21T04:29:42.577Z,6.20
2023-01-21T04:32:09.418Z,6.93
2023-01-21T04:34:36.586Z,5.97
2023-01-21T04:37:03.547Z,6.18
2023-01-21T04:39:30.852Z,7.85
2023-01-21T04:41:57.704Z,7.22
2023-01-21T04:44:24.924Z,7.97
2023-01-21T04:46:51.816Z,7.35
2023-01-21T04:49:19.135Z,7.35
2023-01-21T04:51:45.996Z,7.28
2023-01-21T04:54:13.259Z,7.53
2023-01-21T04:56:40.142Z,6.60
2023-01-21T04:59:07.262Z,6.88
2023-01-21T05:01:34.263Z,7.63
2023-01-21T05:04:01.421Z,6.35
2023-01-21T05:06:28.409Z,6.18
2023-01-21T05:08:55.827Z,6.82
2023-01-21T05:11:23.297Z,7.68
2023-01-21T05:13:50.486Z,6.70
2023-01-21T05:16:17.459Z,6.30
2023-01-21T05:18:46.833Z,7.45
2023-01-21T05:21:13.913Z,6.85
2023-01-21T05:23:41.110Z,6.47
2023-01-21T05:26:08.008Z,6.55
2023-01-21T05:28:35.217Z,6.97
2023-01-21T05:31:03.908Z,6.40
2023-01-21T05:33:36.076Z,6.78
2023-01-21T05:36:04.693Z,5.60
2023-01-21T05:38:31.884Z,8.05
2023-01-21T05:41:04.050Z,6.47
2023-01-21T05:43:31.575Z,7.53
2023-01-21T05:45:58.561Z,6.30
2023-01-21T05:48:25.895Z,6.40
2023-01-21T05:50:52.917Z,6.28
2023-01-21T05:53:20.218Z,6.30
2023-01-21T05:55:51.516Z,6.28
2023-01-21T05:58:19.020Z,6.05
2023-01-21T06:00:47.665Z,5.60
2023-01-21T06:03:17.510Z,6.75
2023-01-21T06:05:45.876Z,5.53
2023-01-21T06:08:13.474Z,6.20
2023-01-21T06:10:40.665Z,5.82
2023-01-21T06:13:09.022Z,4.97
2023-01-21T06:15:35.972Z,5.53
2023-01-21T06:18:03.828Z,5.05
2023-01-21T06:20:31.483Z,5.63
2023-01-21T06:23:01.293Z,5.80
2023-01-21T06:25:28.492Z,6.07
2023-01-21T06:27:56.805Z,6.60
2023-01-21T06:30:25.789Z,5.97
2023-01-21T06:32:53.434Z,6.43
2023-01-21T06:35:20.793Z,5.43
2023-01-21T06:37:48.173Z,5.78
2023-01-21T06:40:16.378Z,6.13
2023-01-21T06:42:49.294Z,5.97
2023-01-21T06:45:17.650Z,5.72
2023-01-21T06:47:45.807Z,6.25
2023-01-21T06:50:16.735Z,5.40
2023-01-21T06:52:49.237Z,5.18
2023-01-21T06:55:17.018Z,5.63
2023-01-21T06:57:44.585Z,5.18
2023-01-21T07:00:13.345Z,5.93
2023-01-21T07:02:41.143Z,6.57
2023-01-21T07:05:08.665Z,5.70
2023-01-21T07:07:36.660Z,6.93
2023-01-21T07:10:04.882Z,5.70
2023-01-21T07:12:32.193Z,5.70
2023-01-21T07:14:59.205Z,6.18
2023-01-21T07:17:26.394Z,5.50
2023-01-21T07:19:53.287Z,6.43
2023-01-21T07:22:20.497Z,6.50
2023-01-21T07:24:47.543Z,6.28
2023-01-21T07:27:14.967Z,5.50
2023-01-21T07:29:41.843Z,5.72
2023-01-21T07:32:09.099Z,5.45
2023-01-21T07:34:36.094Z,4.90
2023-01-21T07:37:03.473Z,5.47
2023-01-21T07:39:30.435Z,5.25
2023-01-21T07:41:57.772Z,4.72
2023-01-21T07:44:24.719Z,5.22
2023-01-21T07:46:52.521Z,5.22
2023-01-21T07:49:19.479Z,4.25
2023-01-21T07:51:48.104Z,4.60
2023-01-21T07:54:15.894Z,4.85
2023-01-21T07:56:43.150Z,4.88
2023-01-21T07:59:11.590Z,4.60
2023-01-21T08:01:38.481Z,5.85
2023-01-21T08:04:07.117Z,5.30
2023-01-21T08:06:34.054Z,5.47
2023-01-21T08:09:01.288Z,4.63
2023-01-21T08:11:28.193Z,4.15
2023-01-21T08:13:55.374Z,4.68
2023-01-21T08:16:22.438Z,3.67
2023-01-21T08:18:49.819Z,4.25
2023-01-21T08:21:16.697Z,4.95
2023-01-21T08:23:43.862Z,4.45
2023-01-21T08:26:10.756Z,5.10
2023-01-21T08:28:38.083Z,5.50
2023-01-21T08:31:12.566Z,4.88
2023-01-21T08:33:40.128Z,4.68
2023-01-21T08:36:09.110Z,4.43
2023-01-21T08:38:37.157Z,4.22
2023-01-21T08:41:04.912Z,4.40
2023-01-21T08:43:32.234Z,4.55
2023-01-21T08:46:01.785Z,5.40
2023-01-21T08:48:30.281Z,5.03
2023-01-21T08:51:01.084Z,4.28
2023-01-21T08:53:28.410Z,4.38
2023-01-21T08:56:05.309Z,3.72
2023-01-21T08:58:33.186Z,4.18
2023-01-21T09:01:08.083Z,4.35
2023-01-21T09:03:35.498Z,4.75
2023-01-21T09:06:05.222Z,3.83
2023-01-21T09:08:33.123Z,4.13
2023-01-21T09:11:02.000Z,4.88
2023-01-21T09:13:32.238Z,4.22
2023-01-21T09:15:59.734Z,4.80
2023-01-21T09:18:28.227Z,4.95
2023-01-21T09:21:01.901Z,4.88
2023-01-21T09:23:32.471Z,5.23
2023-01-21T09:26:02.526Z,4.43
2023-01-21T09:28:31.293Z,4.72
2023-01-21T09:31:06.973Z,5.43
2023-01-21T09:33:37.611Z,5.70
2023-01-21T09:36:07.496Z,4.75
2023-01-21T09:38:35.102Z,5.55
2023-01-21T09:41:33.208Z,5.22
2023-01-21T09:44:19.443Z,5.55
2023-01-21T09:47:20.418Z,6.30
2023-01-21T09:49:54.301Z,6.13
2023-01-21T09:52:45.657Z,5.68
2023-01-21T09:55:17.240Z,6.50
2023-01-21T09:58:13.053Z,6.10
2023-01-21T10:01:07.466Z,5.35
2023-01-21T10:03:57.850Z,6.90
2023-01-21T10:06:43.799Z,6.40
2023-01-21T10:09:25.819Z,6.75
2023-01-21T10:12:10.959Z,6.80
2023-01-21T10:15:22.309Z,6.57
2023-01-21T10:18:04.126Z,7.05
2023-01-21T10:20:50.699Z,7.55
2023-01-21T10:23:36.277Z,8.32
2023-01-21T10:26:10.222Z,8.10
2023-01-21T10:28:54.682Z,6.45
2023-01-21T10:31:25.262Z,7.70
2023-01-21T10:33:53.439Z,7.40
2023-01-21T10:37:17.562Z,7.57
2023-01-21T10:40:42.925Z,6.30
2023-01-21T10:43:30.579Z,7.18
2023-01-21T10:46:36.410Z,7.65
2023-01-21T10:49:25.450Z,7.93
2023-01-21T10:52:12.090Z,6.88
2023-01-21T10:55:05.971Z,8.13
2023-01-21T10:57:44.942Z,8.85
2023-01-21T11:00:27.686Z,7.28
2023-01-21T11:03:02.629Z,7.22
2023-01-21T11:05:32.422Z,7.75
2023-01-21T11:08:00.035Z,7.93
2023-01-21T11:10:28.292Z,8.15
2023-01-21T11:12:57.131Z,7.10
2023-01-21T11:15:24.836Z,7.82
2023-01-21T11:18:02.246Z,8.98
2023-01-21T11:20:43.651Z,8.60
2023-01-21T11:23:35.364Z,7.63
2023-01-21T11:26:16.614Z,8.40
2023-01-21T11:28:45.913Z,9.65
2023-01-21T11:31:27.027Z,8.60
2023-01-21T11:34:03.481Z,8.05
2023-01-21T11:36:30.642Z,9.70
2023-01-21T11:39:09.426Z,9.00
2023-01-21T11:41:36.901Z,8.50
2023-01-21T11:44:19.140Z,8.68
2023-01-21T11:46:46.409Z,7.75
2023-01-21T11:49:22.374Z,6.93
2023-01-21T11:51:50.293Z,8.40
2023-01-21T11:54:24.143Z,9.02
2023-01-21T11:57:03.674Z,8.38
2023-01-21T11:59:40.912Z,9.00
2023-01-21T12:02:17.029Z,10.15
2023-01-21T12:04:50.785Z,11.02
2023-01-21T12:07:36.206Z,11.25
2023-01-21T12:10:17.897Z,11.77
2023-01-21T12:13:15.728Z,10.88
2023-01-21T12:16:11.047Z,11.27
2023-01-21T12:19:17.872Z,11.60
2023-01-21T12:22:03.923Z,12.10
2023-01-21T12:25:02.934Z,11.85
2023-01-21T12:27:38.721Z,11.98
2023-01-21T12:30:38.813Z,11.18
2023-01-21T12:33:38.469Z,10.43
2023-01-21T12:36:17.979Z,11.13
2023-01-21T12:39:05.472Z,11.05
2023-01-21T12:41:34.944Z,11.80
2023-01-21T12:44:25.970Z,10.30
2023-01-21T12:47:03.825Z,13.55
2023-01-21T12:49:49.773Z,10.52
2023-01-21T12:52:52.295Z,10.85
2023-01-21T12:55:35.459Z,10.85
2023-01-21T12:58:14.035Z,11.60
2023-01-21T13:00:50.338Z,9.88
2023-01-21T13:03:57.339Z,11.65
2023-01-21T13:06:53.262Z,10.25
2023-01-21T13:10:07.682Z,9.15
2023-01-21T13:12:38.186Z,9.82
2023-01-21T13:15:19.501Z,9.98
2023-01-21T13:18:00.837Z,12.13
2023-01-21T13:20:31.116Z,9.73
2023-01-21T13:23:31.947Z,9.63
2023-01-21T13:26:36.379Z,10.27
2023-01-21T13:29:53.436Z,10.73
2023-01-21T13:32:31.445Z,10.30
2023-01-21T13:35:20.348Z,9.98
2023-01-21T13:38:33.376Z,10.05
2023-01-21T13:41:36.109Z,10.88
2023-01-21T13:44:38.260Z,10.25
2023-01-21T13:47:18.969Z,9.50
2023-01-21T13:50:15.461Z,10.00
2023-01-21T13:53:20.693Z,9.85
2023-01-21T13:56:27.211Z,10.35
2023-01-21T13:59:09.659Z,9.30
2023-01-21T14:01:54.198Z,9.27
2023-01-21T14:04:37.232Z,9.18
2023-01-21T14:07:23.836Z,9.45
2023-01-21T14:10:06.750Z,10.30
2023-01-21T14:13:06.848Z,9.13
2023-01-21T14:15:50.483Z,9.35
2023-01-21T14:18:40.821Z,10.23
2023-01-21T14:21:38.070Z,9.70
2023-01-21T14:24:41.971Z,9.55
2023-01-21T14:27:58.189Z,9.48
2023-01-21T14:30:40.210Z,9.50
2023-01-21T14:33:23.609Z,10.10
2023-01-21T14:36:08.232Z,11.57
2023-01-21T14:39:02.987Z,9.13
2023-01-21T14:42:06.685Z,10.15
2023-01-21T14:45:05.578Z,10.35
2023-01-21T14:47:32.558Z,10.98
2023-01-21T14:50:00.353Z,9.23
2023-01-21T14:52:53.923Z,9.27
2023-01-21T14:55:32.817Z,8.73
2023-01-21T14:58:01.823Z,9.07
2023-01-21T15:00:37.445Z,9.20
2023-01-21T15:03:19.137Z,8.60
2023-01-21T15:05:53.936Z,8.88
2023-01-21T15:08:29.583Z,8.60
2023-01-21T15:11:05.478Z,9.50
2023-01-21T15:13:39.940Z,8.70
2023-01-21T15:16:31.279Z,8.10
2023-01-21T15:19:11.226Z,8.80
2023-01-21T15:21:41.408Z,8.57
2023-01-21T15:24:32.385Z,8.85
2023-01-21T15:27:28.095Z,6.75
2023-01-21T15:29:55.139Z,7.80
2023-01-21T15:32:51.437Z,8.63
2023-01-21T15:35:40.409Z,7.78
2023-01-21T15:38:17.544Z,8.10
2023-01-21T15:41:11.447Z,7.70
2023-01-21T15:44:04.309Z,7.32
2023-01-21T15:46:57.621Z,8.05
2023-01-21T15:50:16.522Z,7.55
2023-01-21T15:53:10.740Z,8.25
2023-01-21T15:56:19.583Z,7.00
2023-01-21T15:59:14.893Z,6.93
2023-01-21T16:04:19.971Z,8.07
2023-01-21T16:07:30.589Z,7.65
2023-01-21T16:10:21.436Z,8.07
2023-01-21T16:13:14.499Z,7.88
2023-01-21T16:15:47.970Z,7.45
2023-01-21T16:18:32.143Z,7.57
2023-01-21T16:21:03.846Z,7.97
2023-01-21T16:23:41.161Z,7.93
2023-01-21T16:26:08.200Z,7.43
2023-01-21T16:28:48.118Z,8.52
2023-01-21T16:31:15.981Z,7.35
2023-01-21T16:33:44.028Z,7.43
2023-01-21T16:36:14.377Z,8.70
2023-01-21T16:38:44.859Z,9.90
2023-01-21T16:41:12.346Z,7.20
2023-01-21T16:44:00.366Z,7.75
2023-01-21T16:46:39.140Z,7.13
2023-01-21T16:49:15.990Z,7.07
2023-01-21T16:52:15.428Z,6.72
2023-01-21T16:54:55.112Z,6.18
2023-01-21T16:57:31.728Z,6.75
2023-01-21T17:00:02.506Z,6.25
2023-01-21T17:02:33.827Z,6.35
2023-01-21T17:05:08.328Z,6.45
2023-01-21T17:07:53.425Z,5.85
2023-01-21T17:10:40.109Z,6.03
2023-01-21T17:13:16.177Z,6.25
2023-01-21T17:15:58.145Z,6.85
2023-01-21T17:18:30.255Z,5.88
2023-01-21T17:21:34.126Z,6.63
2023-01-21T17:24:08.179Z,5.63
2023-01-21T17:26:43.186Z,6.70
2023-01-21T17:29:32.266Z,5.90
2023-01-21T17:32:07.512Z,5.85
2023-01-21T17:34:37.589Z,6.47
2023-01-21T17:37:55.666Z,6.70
2023-01-21T17:40:45.350Z,6.45
2023-01-21T17:43:22.482Z,6.28
2023-01-21T17:45:53.013Z,5.93
2023-01-21T17:48:33.983Z,5.43
2023-01-21T17:51:14.792Z,5.97
2023-01-21T17:53:56.117Z,5.82
2023-01-21T17:56:52.249Z,6.18
2023-01-21T17:59:38.209Z,6.40
2023-01-21T18:02:12.955Z,5.47
2023-01-21T18:04:41.264Z,6.63
2023-01-21T18:07:38.169Z,6.38
2023-01-21T18:10:19.677Z,5.88
2023-01-21T18:12:46.637Z,5.20
2023-01-21T18:15:16.127Z,6.70
2023-01-21T18:17:52.407Z,6.82
2023-01-21T18:20:24.523Z,6.78
2023-01-21T18:22:54.035Z,6.97
2023-01-21T18:25:24.224Z,5.65
2023-01-21T18:27:54.918Z,6.13
2023-01-21T18:30:26.910Z,6.00
2023-01-21T18:32:56.582Z,6.05
2023-01-21T18:35:28.933Z,5.20
2023-01-21T18:37:56.315Z,5.43
2023-01-21T18:40:24.460Z,5.53
2023-01-21T18:42:55.956Z,4.88
2023-01-21T18:45:28.420Z,6.00
2023-01-21T18:47:56.838Z,5.00
2023-01-21T18:50:27.969Z,4.82
2023-01-21T18:52:55.630Z,5.03
2023-01-21T18:55:29.069Z,5.55
2023-01-21T18:57:57.213Z,5.18
2023-01-21T19:00:32.240Z,5.10
2023-01-21T19:03:01.594Z,5.72
2023-01-21T19:05:39.321Z,5.95
2023-01-21T19:08:21.935Z,4.82
2023-01-21T19:10:49.159Z,5.32
2023-01-21T19:13:17.528Z,5.47
2023-01-21T19:15:45.889Z,4.97
2023-01-21T19:18:16.275Z,6.93
2023-01-21T19:20:44.103Z,7.15
2023-01-21T19:23:17.617Z,5.63
2023-01-21T19:25:56.581Z,6.50
2023-01-21T19:28:24.929Z,6.10
2023-01-21T19:30:55.591Z,5.20
2023-01-21T19:33:24.317Z,5.28
2023-01-21T19:36:04.876Z,4.70
2023-01-21T19:38:32.081Z,5.85
2023-01-21T19:40:59.437Z,5.90
2023-01-21T19:43:26.396Z,6.05
2023-01-21T19:45:54.192Z,5.35
2023-01-21T19:48:22.473Z,5.78
2023-01-21T19:50:50.244Z,5.90
2023-01-21T19:53:21.016Z,4.75
2023-01-21T19:55:51.918Z,4.78
2023-01-21T19:58:24.046Z,4.57
2023-01-21T20:00:53.842Z,9.77
2023-01-21T20:03:28.413Z,5.47
2023-01-21T20:06:03.539Z,5.40
2023-01-21T20:08:31.844Z,5.25
2023-01-21T20:10:59.267Z,4.68
2023-01-21T20:13:27.627Z,6.35
2023-01-21T20:15:55.002Z,6.38
2023-01-21T20:18:28.302Z,6.10
2023-01-21T20:20:56.044Z,5.32
2023-01-21T20:23:25.227Z,5.00
2023-01-21T20:25:58.964Z,4.93
2023-01-21T20:28:50.442Z,5.43
2023-01-21T20:31:18.672Z,4.85
2023-01-21T20:33:46.411Z,5.13
2023-01-21T20:36:25.067Z,5.50
2023-01-21T20:38:54.333Z,4.50
2023-01-21T20:41:22.804Z,4.72
2023-01-21T20:43:50.578Z,5.28
2023-01-21T20:46:24.812Z,5.53
2023-01-21T20:48:52.041Z,5.68
2023-01-21T20:51:20.353Z,5.70
2023-01-21T20:53:47.559Z,5.40
2023-01-21T20:56:30.903Z,5.00
2023-01-21T20:58:59.272Z,4.97
2023-01-21T21:01:28.590Z,5.80
2023-01-21T21:03:55.881Z,5.40
2023-01-21T21:06:28.666Z,5.32
2023-01-21T21:08:56.160Z,5.70
2023-01-21T21:11:23.831Z,5.25
2023-01-21T21:13:52.545Z,5.55
2023-01-21T21:16:31.730Z,4.93
2023-01-21T21:19:00.851Z,5.35
2023-01-21T21:21:28.445Z,4.47
2023-01-21T21:23:55.506Z,5.35
2023-01-21T21:26:29.464Z,5.10
2023-01-21T21:28:57.771Z,5.10
2023-01-21T21:31:31.959Z,5.40
2023-01-21T21:33:58.983Z,6.47
2023-01-21T21:36:26.341Z,4.70
2023-01-21T21:38:55.868Z,5.68
2023-01-21T21:41:44.303Z,4.45
2023-01-21T21:44:12.266Z,4.70
2023-01-21T21:46:59.467Z,5.55
2023-01-21T21:49:27.709Z,6.13
2023-01-21T21:51:55.386Z,5.53
2023-01-21T21:54:23.736Z,5.50
2023-01-21T21:56:51.795Z,5.80
2023-01-21T21:59:18.739Z,5.88
2023-01-21T22:01:46.201Z,5.35
2023-01-21T22:04:13.411Z,4.78
2023-01-21T22:06:40.766Z,4.30
2023-01-21T22:09:08.291Z,5.10
2023-01-21T22:11:35.697Z,6.13
2023-01-21T22:14:04.106Z,7.05
2023-01-21T22:16:33.187Z,6.13
2023-01-21T22:19:01.184Z,6.53
2023-01-21T22:21:32.795Z,5.47
2023-01-21T22:24:02.728Z,6.35
2023-01-21T22:26:30.651Z,6.72
2023-01-21T22:28:57.930Z,6.20
2023-01-21T22:31:29.056Z,6.13
2023-01-21T22:33:58.088Z,5.30
2023-01-21T22:36:29.723Z,6.32
2023-01-21T22:38:57.385Z,5.57
2023-01-21T22:41:25.828Z,6.30
2023-01-21T22:43:53.593Z,6.50
2023-01-21T22:46:30.185Z,5.80
2023-01-21T22:48:58.750Z,5.32
2023-01-21T22:51:29.309Z,5.50
2023-01-21T22:53:56.605Z,5.43
2023-01-21T22:56:40.200Z,5.93
2023-01-21T22:59:14.099Z,6.00
2023-01-21T23:01:42.100Z,5.93
2023-01-21T23:04:09.821Z,5.50
2023-01-21T23:06:37.871Z,5.68
2023-01-21T23:09:06.754Z,5.45
2023-01-21T23:11:36.845Z,5.00
2023-01-21T23:14:03.797Z,5.75
2023-01-21T23:16:31.003Z,5.30
2023-01-21T23:18:58.989Z,5.53
2023-01-21T23:21:26.403Z,7.53
2023-01-21T23:23:53.287Z,5.22
2023-01-21T23:26:20.576Z,5.90
2023-01-21T23:28:47.628Z,5.53
2023-01-21T23:31:17.844Z,5.85
2023-01-21T23:33:48.874Z,8.77
2023-01-21T23:36:16.165Z,6.13
2023-01-21T23:38:44.065Z,5.70
2023-01-21T23:41:16.902Z,5.95
2023-01-21T23:43:44.001Z,4.82
2023-01-21T23:46:16.615Z,5.70
2023-01-21T23:48:44.027Z,5.18
2023-01-21T23:51:16.204Z,5.38
2023-01-21T23:53:43.377Z,4.97
2023-01-21T23:56:19.336Z,5.45
2023-01-21T23:58:46.317Z,4.82
